sensor_id;sensor_type;location;lat;lon;timestamp;P1;durP1;ratioP1;P2;durP2;ratioP2
8704;SDS011;4389;41.932;25.904;2023-10-13T00:00:46;5.07;;;3.43;;
8704;SDS011;4389;41.932;25.904;2023-10-13T00:03:13;3.90;;;3.43;;
8704;SDS011;4389;41.932;25.904;2023-10-13T00:05:44;5.33;;;3.77;;
8704;SDS011;4389;41.932;25.904;2023-10-13T00:08:11;4.60;;;3.57;;
8704;SDS011;4389;41.932;25.904;2023-10-13T00:10:38;5.77;;;3.53;;
8704;SDS011;4389;41.932;25.904;2023-10-13T00:13:07;11.33;;;3.60;;
8704;SDS011;4389;41.932;25.904;2023-10-13T00:15:38;7.43;;;3.50;;
8704;SDS011;4389;41.932;25.904;2023-10-13T00:18:11;7.93;;;3.87;;
8704;SDS011;4389;41.932;25.904;2023-10-13T00:20:40;13.10;;;4.33;;
8704;SDS011;4389;41.932;25.904;2023-10-13T00:23:13;8.67;;;3.73;;
8704;SDS011;4389;41.932;25.904;2023-10-13T00:25:40;10.10;;;4.40;;
8704;SDS011;4389;41.932;25.904;2023-10-13T00:28:17;13.37;;;4.77;;
8704;SDS011;4389;41.932;25.904;2023-10-13T00:30:49;10.27;;;4.63;;
8704;SDS011;4389;41.932;25.904;2023-10-13T00:33:17;8.43;;;4.90;;
8704;SDS011;4389;41.932;25.904;2023-10-13T00:35:45;9.30;;;4.37;;
8704;SDS011;4389;41.932;25.904;2023-10-13T00:38:14;8.70;;;4.53;;
8704;SDS011;4389;41.932;25.904;2023-10-13T00:40:42;9.83;;;5.10;;
8704;SDS011;4389;41.932;25.904;2023-10-13T00:43:18;8.73;;;5.13;;
8704;SDS011;4389;41.932;25.904;2023-10-13T00:46:04;8.60;;;5.03;;
8704;SDS011;4389;41.932;25.904;2023-10-13T00:48:38;7.10;;;4.10;;
8704;SDS011;4389;41.932;25.904;2023-10-13T00:51:17;5.60;;;3.77;;
8704;SDS011;4389;41.932;25.904;2023-10-13T00:53:47;9.37;;;4.40;;
8704;SDS011;4389;41.932;25.904;2023-10-13T00:56:16;5.77;;;4.40;;
8704;SDS011;4389;41.932;25.904;2023-10-13T00:58:49;8.33;;;4.57;;
8704;SDS011;4389;41.932;25.904;2023-10-13T01:01:17;10.13;;;4.63;;
8704;SDS011;4389;41.932;25.904;2023-10-13T01:03:44;10.27;;;5.30;;
8704;SDS011;4389;41.932;25.904;2023-10-13T01:06:13;11.00;;;5.97;;
8704;SDS011;4389;41.932;25.904;2023-10-13T01:08:42;7.73;;;5.37;;
8704;SDS011;4389;41.932;25.904;2023-10-13T01:11:10;13.60;;;4.90;;
8704;SDS011;4389;41.932;25.904;2023-10-13T01:13:36;7.40;;;5.50;;
8704;SDS011;4389;41.932;25.904;2023-10-13T01:16:04;11.23;;;6.33;;
8704;SDS011;4389;41.932;25.904;2023-10-13T01:18:32;5.40;;;3.50;;
8704;SDS011;4389;41.932;25.904;2023-10-13T01:21:05;4.53;;;3.70;;
8704;SDS011;4389;41.932;25.904;2023-10-13T01:23:33;5.97;;;4.73;;
8704;SDS011;4389;41.932;25.904;2023-10-13T01:26:04;8.17;;;4.30;;
8704;SDS011;4389;41.932;25.904;2023-10-13T01:28:31;7.20;;;3.30;;
8704;SDS011;4389;41.932;25.904;2023-10-13T01:31:10;5.53;;;3.93;;
8704;SDS011;4389;41.932;25.904;2023-10-13T01:33:38;4.77;;;3.30;;
8704;SDS011;4389;41.932;25.904;2023-10-13T01:36:04;5.03;;;3.77;;
8704;SDS011;4389;41.932;25.904;2023-10-13T01:38:36;7.50;;;4.33;;
8704;SDS011;4389;41.932;25.904;2023-10-13T01:41:06;5.77;;;3.83;;
8704;SDS011;4389;41.932;25.904;2023-10-13T01:43:34;7.10;;;4.20;;
8704;SDS011;4389;41.932;25.904;2023-10-13T01:46:00;9.47;;;4.80;;
8704;SDS011;4389;41.932;25.904;2023-10-13T01:48:28;13.43;;;4.43;;
8704;SDS011;4389;41.932;25.904;2023-10-13T01:50:57;12.93;;;3.83;;
8704;SDS011;4389;41.932;25.904;2023-10-13T01:53:29;4.53;;;3.70;;
8704;SDS011;4389;41.932;25.904;2023-10-13T01:55:56;8.83;;;4.10;;
8704;SDS011;4389;41.932;25.904;2023-10-13T01:58:23;12.83;;;4.73;;
8704;SDS011;4389;41.932;25.904;2023-10-13T02:00:51;4.17;;;3.70;;
8704;SDS011;4389;41.932;25.904;2023-10-13T02:03:18;7.87;;;4.37;;
8704;SDS011;4389;41.932;25.904;2023-10-13T02:05:47;6.53;;;4.13;;
8704;SDS011;4389;41.932;25.904;2023-10-13T02:08:14;7.43;;;4.70;;
8704;SDS011;4389;41.932;25.904;2023-10-13T02:10:44;11.50;;;4.27;;
8704;SDS011;4389;41.932;25.904;2023-10-13T02:13:13;10.87;;;4.10;;
8704;SDS011;4389;41.932;25.904;2023-10-13T02:15:43;5.27;;;4.07;;
8704;SDS011;4389;41.932;25.904;2023-10-13T02:18:13;7.20;;;3.33;;
8704;SDS011;4389;41.932;25.904;2023-10-13T02:20:45;7.10;;;4.10;;
8704;SDS011;4389;41.932;25.904;2023-10-13T02:23:19;6.67;;;3.70;;
8704;SDS011;4389;41.932;25.904;2023-10-13T02:25:46;7.33;;;4.07;;
8704;SDS011;4389;41.932;25.904;2023-10-13T02:28:14;26.87;;;4.40;;
8704;SDS011;4389;41.932;25.904;2023-10-13T02:30:41;5.83;;;3.63;;
8704;SDS011;4389;41.932;25.904;2023-10-13T02:33:14;4.40;;;3.30;;
8704;SDS011;4389;41.932;25.904;2023-10-13T02:35:46;7.37;;;3.70;;
8704;SDS011;4389;41.932;25.904;2023-10-13T02:38:19;7.83;;;3.70;;
8704;SDS011;4389;41.932;25.904;2023-10-13T02:40:52;7.10;;;4.20;;
8704;SDS011;4389;41.932;25.904;2023-10-13T02:43:22;11.10;;;3.83;;
8704;SDS011;4389;41.932;25.904;2023-10-13T02:45:54;10.40;;;3.73;;
8704;SDS011;4389;41.932;25.904;2023-10-13T02:48:25;4.00;;;3.00;;
8704;SDS011;4389;41.932;25.904;2023-10-13T02:50:56;4.87;;;3.60;;
8704;SDS011;4389;41.932;25.904;2023-10-13T02:53:31;8.97;;;3.77;;
8704;SDS011;4389;41.932;25.904;2023-10-13T02:55:56;6.70;;;3.37;;
8704;SDS011;4389;41.932;25.904;2023-10-13T02:58:32;3.77;;;3.17;;
8704;SDS011;4389;41.932;25.904;2023-10-13T03:01:07;7.53;;;4.47;;
8704;SDS011;4389;41.932;25.904;2023-10-13T03:03:46;8.67;;;4.30;;
8704;SDS011;4389;41.932;25.904;2023-10-13T03:06:16;13.13;;;4.53;;
8704;SDS011;4389;41.932;25.904;2023-10-13T03:08:42;15.47;;;3.97;;
8704;SDS011;4389;41.932;25.904;2023-10-13T03:11:09;4.57;;;3.90;;
8704;SDS011;4389;41.932;25.904;2023-10-13T03:13:38;8.10;;;4.20;;
8704;SDS011;4389;41.932;25.904;2023-10-13T03:16:13;17.13;;;4.43;;
8704;SDS011;4389;41.932;25.904;2023-10-13T03:18:42;9.90;;;3.93;;
8704;SDS011;4389;41.932;25.904;2023-10-13T03:21:19;9.10;;;3.77;;
8704;SDS011;4389;41.932;25.904;2023-10-13T03:23:56;10.13;;;4.03;;
8704;SDS011;4389;41.932;25.904;2023-10-13T03:26:30;9.57;;;4.60;;
8704;SDS011;4389;41.932;25.904;2023-10-13T03:29:01;7.10;;;4.17;;
8704;SDS011;4389;41.932;25.904;2023-10-13T03:31:32;13.60;;;4.57;;
8704;SDS011;4389;41.932;25.904;2023-10-13T03:34:03;5.83;;;4.10;;
8704;SDS011;4389;41.932;25.904;2023-10-13T03:36:35;8.43;;;4.27;;
8704;SDS011;4389;41.932;25.904;2023-10-13T03:39:19;5.33;;;3.70;;
8704;SDS011;4389;41.932;25.904;2023-10-13T03:41:52;7.70;;;3.73;;
8704;SDS011;4389;41.932;25.904;2023-10-13T03:44:20;4.50;;;3.23;;
8704;SDS011;4389;41.932;25.904;2023-10-13T03:46:48;13.30;;;3.67;;
8704;SDS011;4389;41.932;25.904;2023-10-13T03:49:15;9.60;;;4.43;;
8704;SDS011;4389;41.932;25.904;2023-10-13T03:51:47;6.33;;;3.60;;
8704;SDS011;4389;41.932;25.904;2023-10-13T03:54:14;10.93;;;3.43;;
8704;SDS011;4389;41.932;25.904;2023-10-13T03:56:43;11.80;;;5.80;;
8704;SDS011;4389;41.932;25.904;2023-10-13T03:59:11;12.87;;;5.80;;
8704;SDS011;4389;41.932;25.904;2023-10-13T04:01:47;8.50;;;5.23;;
8704;SDS011;4389;41.932;25.904;2023-10-13T04:04:23;5.67;;;3.40;;
8704;SDS011;4389;41.932;25.904;2023-10-13T04:06:59;7.33;;;3.70;;
8704;SDS011;4389;41.932;25.904;2023-10-13T04:09:51;10.03;;;4.30;;
8704;SDS011;4389;41.932;25.904;2023-10-13T04:12:35;12.93;;;3.70;;
8704;SDS011;4389;41.932;25.904;2023-10-13T04:15:19;8.57;;;3.70;;
8704;SDS011;4389;41.932;25.904;2023-10-13T04:17:50;6.63;;;3.60;;
8704;SDS011;4389;41.932;25.904;2023-10-13T04:20:17;6.73;;;3.60;;
8704;SDS011;4389;41.932;25.904;2023-10-13T04:22:54;3.30;;;2.93;;
8704;SDS011;4389;41.932;25.904;2023-10-13T04:25:35;12.57;;;4.20;;
8704;SDS011;4389;41.932;25.904;2023-10-13T04:28:18;8.63;;;4.20;;
8704;SDS011;4389;41.932;25.904;2023-10-13T04:30:59;7.93;;;4.13;;
8704;SDS011;4389;41.932;25.904;2023-10-13T04:33:38;13.33;;;4.43;;
8704;SDS011;4389;41.932;25.904;2023-10-13T04:36:16;11.93;;;4.63;;
8704;SDS011;4389;41.932;25.904;2023-10-13T04:38:47;13.60;;;4.53;;
8704;SDS011;4389;41.932;25.904;2023-10-13T04:41:26;7.57;;;4.27;;
8704;SDS011;4389;41.932;25.904;2023-10-13T04:43:57;12.90;;;4.77;;
8704;SDS011;4389;41.932;25.904;2023-10-13T04:46:30;11.80;;;3.93;;
8704;SDS011;4389;41.932;25.904;2023-10-13T04:49:21;21.40;;;6.57;;
8704;SDS011;4389;41.932;25.904;2023-10-13T04:51:54;20.03;;;5.30;;
8704;SDS011;4389;41.932;25.904;2023-10-13T04:54:24;12.60;;;6.50;;
8704;SDS011;4389;41.932;25.904;2023-10-13T04:57:10;17.57;;;4.30;;
8704;SDS011;4389;41.932;25.904;2023-10-13T04:59:50;16.90;;;5.77;;
8704;SDS011;4389;41.932;25.904;2023-10-13T05:02:35;15.27;;;6.40;;
8704;SDS011;4389;41.932;25.904;2023-10-13T05:05:24;9.27;;;5.20;;
8704;SDS011;4389;41.932;25.904;2023-10-13T05:08:11;11.43;;;4.63;;
8704;SDS011;4389;41.932;25.904;2023-10-13T05:10:56;13.97;;;6.90;;
8704;SDS011;4389;41.932;25.904;2023-10-13T05:13:40;19.23;;;9.67;;
8704;SDS011;4389;41.932;25.904;2023-10-13T05:16:24;6.57;;;4.07;;
8704;SDS011;4389;41.932;25.904;2023-10-13T05:19:08;8.47;;;3.80;;
8704;SDS011;4389;41.932;25.904;2023-10-13T05:21:54;6.77;;;3.87;;
8704;SDS011;4389;41.932;25.904;2023-10-13T05:24:38;12.20;;;4.67;;
8704;SDS011;4389;41.932;25.904;2023-10-13T05:27:22;11.07;;;4.70;;
8704;SDS011;4389;41.932;25.904;2023-10-13T05:30:07;21.63;;;4.77;;
8704;SDS011;4389;41.932;25.904;2023-10-13T05:32:52;16.73;;;5.00;;
8704;SDS011;4389;41.932;25.904;2023-10-13T05:35:36;17.93;;;7.10;;
8704;SDS011;4389;41.932;25.904;2023-10-13T05:38:21;23.37;;;6.73;;
8704;SDS011;4389;41.932;25.904;2023-10-13T05:41:06;23.43;;;7.27;;
8704;SDS011;4389;41.932;25.904;2023-10-13T05:43:50;19.00;;;5.97;;
8704;SDS011;4389;41.932;25.904;2023-10-13T05:46:34;23.27;;;5.77;;
8704;SDS011;4389;41.932;25.904;2023-10-13T05:49:14;7.07;;;4.77;;
8704;SDS011;4389;41.932;25.904;2023-10-13T05:52:05;8.33;;;5.00;;
8704;SDS011;4389;41.932;25.904;2023-10-13T05:55:06;13.70;;;5.67;;
8704;SDS011;4389;41.932;25.904;2023-10-13T05:57:51;16.77;;;5.63;;
8704;SDS011;4389;41.932;25.904;2023-10-13T06:00:41;18.53;;;6.27;;
8704;SDS011;4389;41.932;25.904;2023-10-13T06:03:25;20.07;;;10.77;;
8704;SDS011;4389;41.932;25.904;2023-10-13T06:06:10;12.73;;;6.50;;
8704;SDS011;4389;41.932;25.904;2023-10-13T06:08:54;30.00;;;9.67;;
8704;SDS011;4389;41.932;25.904;2023-10-13T06:11:40;26.27;;;11.37;;
8704;SDS011;4389;41.932;25.904;2023-10-13T06:14:24;18.47;;;11.50;;
8704;SDS011;4389;41.932;25.904;2023-10-13T06:17:19;16.83;;;12.23;;
8704;SDS011;4389;41.932;25.904;2023-10-13T06:20:04;28.40;;;13.60;;
8704;SDS011;4389;41.932;25.904;2023-10-13T06:22:58;23.37;;;10.77;;
8704;SDS011;4389;41.932;25.904;2023-10-13T06:25:42;21.27;;;12.17;;
8704;SDS011;4389;41.932;25.904;2023-10-13T06:28:28;16.07;;;10.03;;
8704;SDS011;4389;41.932;25.904;2023-10-13T06:31:07;29.70;;;11.40;;
8704;SDS011;4389;41.932;25.904;2023-10-13T06:33:39;32.20;;;13.20;;
8704;SDS011;4389;41.932;25.904;2023-10-13T06:36:10;41.97;;;22.27;;
8704;SDS011;4389;41.932;25.904;2023-10-13T06:38:37;47.17;;;33.83;;
8704;SDS011;4389;41.932;25.904;2023-10-13T06:41:04;59.90;;;35.00;;
8704;SDS011;4389;41.932;25.904;2023-10-13T06:43:33;48.60;;;42.03;;
8704;SDS011;4389;41.932;25.904;2023-10-13T06:46:05;55.33;;;42.47;;
8704;SDS011;4389;41.932;25.904;2023-10-13T06:48:32;55.13;;;46.20;;
8704;SDS011;4389;41.932;25.904;2023-10-13T06:51:00;61.80;;;46.93;;
8704;SDS011;4389;41.932;25.904;2023-10-13T06:53:37;55.47;;;42.03;;
8704;SDS011;4389;41.932;25.904;2023-10-13T06:56:11;43.83;;;30.60;;
8704;SDS011;4389;41.932;25.904;2023-10-13T06:58:44;32.70;;;24.00;;
8704;SDS011;4389;41.932;25.904;2023-10-13T07:01:12;34.20;;;21.73;;
8704;SDS011;4389;41.932;25.904;2023-10-13T07:03:41;33.20;;;20.37;;
8704;SDS011;4389;41.932;25.904;2023-10-13T07:06:08;32.93;;;20.33;;
8704;SDS011;4389;41.932;25.904;2023-10-13T07:08:37;38.27;;;22.20;;
8704;SDS011;4389;41.932;25.904;2023-10-13T07:11:04;34.37;;;17.30;;
8704;SDS011;4389;41.932;25.904;2023-10-13T07:13:33;29.13;;;19.77;;
8704;SDS011;4389;41.932;25.904;2023-10-13T07:16:04;27.37;;;15.50;;
8704;SDS011;4389;41.932;25.904;2023-10-13T07:18:33;32.20;;;19.73;;
8704;SDS011;4389;41.932;25.904;2023-10-13T07:21:02;48.60;;;15.73;;
8704;SDS011;4389;41.932;25.904;2023-10-13T07:23:35;22.80;;;14.27;;
8704;SDS011;4389;41.932;25.904;2023-10-13T07:26:04;15.93;;;13.83;;
8704;SDS011;4389;41.932;25.904;2023-10-13T07:28:33;31.63;;;15.40;;
8704;SDS011;4389;41.932;25.904;2023-10-13T07:31:01;12.07;;;10.17;;
8704;SDS011;4389;41.932;25.904;2023-10-13T07:33:42;16.83;;;8.40;;
8704;SDS011;4389;41.932;25.904;2023-10-13T07:36:09;12.57;;;7.63;;
8704;SDS011;4389;41.932;25.904;2023-10-13T07:38:50;12.50;;;6.67;;
8704;SDS011;4389;41.932;25.904;2023-10-13T07:41:34;16.20;;;6.90;;
8704;SDS011;4389;41.932;25.904;2023-10-13T07:44:01;15.00;;;7.83;;
8704;SDS011;4389;41.932;25.904;2023-10-13T07:46:30;8.77;;;5.77;;
8704;SDS011;4389;41.932;25.904;2023-10-13T07:49:00;22.97;;;7.10;;
8704;SDS011;4389;41.932;25.904;2023-10-13T07:51:34;11.03;;;5.70;;
8704;SDS011;4389;41.932;25.904;2023-10-13T07:54:09;8.77;;;6.50;;
8704;SDS011;4389;41.932;25.904;2023-10-13T07:56:40;17.37;;;6.70;;
8704;SDS011;4389;41.932;25.904;2023-10-13T07:59:06;13.73;;;8.70;;
8704;SDS011;4389;41.932;25.904;2023-10-13T08:01:34;18.07;;;5.70;;
8704;SDS011;4389;41.932;25.904;2023-10-13T08:04:02;13.23;;;5.27;;
8704;SDS011;4389;41.932;25.904;2023-10-13T08:06:34;15.77;;;6.47;;
8704;SDS011;4389;41.932;25.904;2023-10-13T08:09:02;20.73;;;6.27;;
8704;SDS011;4389;41.932;25.904;2023-10-13T08:11:34;18.23;;;5.43;;
8704;SDS011;4389;41.932;25.904;2023-10-13T08:14:03;7.87;;;5.33;;
8704;SDS011;4389;41.932;25.904;2023-10-13T08:16:38;8.63;;;4.90;;
8704;SDS011;4389;41.932;25.904;2023-10-13T08:19:13;10.83;;;5.67;;
8704;SDS011;4389;41.932;25.904;2023-10-13T08:21:41;9.53;;;4.60;;
8704;SDS011;4389;41.932;25.904;2023-10-13T08:24:14;14.60;;;5.87;;
8704;SDS011;4389;41.932;25.904;2023-10-13T08:26:50;13.77;;;4.70;;
8704;SDS011;4389;41.932;25.904;2023-10-13T08:29:23;20.73;;;4.43;;
8704;SDS011;4389;41.932;25.904;2023-10-13T08:32:07;10.30;;;4.27;;
8704;SDS011;4389;41.932;25.904;2023-10-13T08:34:49;6.87;;;3.70;;
8704;SDS011;4389;41.932;25.904;2023-10-13T08:37:34;13.97;;;4.60;;
8704;SDS011;4389;41.932;25.904;2023-10-13T08:40:13;9.90;;;3.73;;
8704;SDS011;4389;41.932;25.904;2023-10-13T08:43:03;17.43;;;4.20;;
8704;SDS011;4389;41.932;25.904;2023-10-13T08:45:38;10.07;;;4.00;;
8704;SDS011;4389;41.932;25.904;2023-10-13T08:48:24;10.53;;;3.77;;
8704;SDS011;4389;41.932;25.904;2023-10-13T08:51:00;7.90;;;3.67;;
8704;SDS011;4389;41.932;25.904;2023-10-13T08:53:45;17.90;;;4.50;;
8704;SDS011;4389;41.932;25.904;2023-10-13T08:56:17;18.43;;;6.13;;
8704;SDS011;4389;41.932;25.904;2023-10-13T08:58:44;8.50;;;5.03;;
8704;SDS011;4389;41.932;25.904;2023-10-13T09:01:30;7.77;;;4.33;;
8704;SDS011;4389;41.932;25.904;2023-10-13T09:04:02;18.67;;;3.90;;
8704;SDS011;4389;41.932;25.904;2023-10-13T09:06:50;15.40;;;3.70;;
8704;SDS011;4389;41.932;25.904;2023-10-13T09:09:44;10.73;;;3.50;;
8704;SDS011;4389;41.932;25.904;2023-10-13T09:12:25;10.73;;;3.43;;
8704;SDS011;4389;41.932;25.904;2023-10-13T09:15:04;9.00;;;4.30;;
8704;SDS011;4389;41.932;25.904;2023-10-13T09:17:32;13.10;;;3.80;;
8704;SDS011;4389;41.932;25.904;2023-10-13T09:20:12;10.40;;;3.50;;
8704;SDS011;4389;41.932;25.904;2023-10-13T09:22:58;12.73;;;4.23;;
8704;SDS011;4389;41.932;25.904;2023-10-13T09:25:34;11.67;;;4.70;;
8704;SDS011;4389;41.932;25.904;2023-10-13T09:28:02;10.80;;;3.77;;
8704;SDS011;4389;41.932;25.904;2023-10-13T09:30:42;17.47;;;5.53;;
8704;SDS011;4389;41.932;25.904;2023-10-13T09:33:08;10.00;;;3.40;;
8704;SDS011;4389;41.932;25.904;2023-10-13T09:35:35;6.60;;;3.50;;
8704;SDS011;4389;41.932;25.904;2023-10-13T09:38:03;29.30;;;6.23;;
8704;SDS011;4389;41.932;25.904;2023-10-13T09:40:31;9.63;;;3.30;;
8704;SDS011;4389;41.932;25.904;2023-10-13T09:43:00;11.10;;;4.60;;
8704;SDS011;4389;41.932;25.904;2023-10-13T09:45:33;12.73;;;3.77;;
8704;SDS011;4389;41.932;25.904;2023-10-13T09:48:02;8.57;;;3.77;;
8704;SDS011;4389;41.932;25.904;2023-10-13T09:50:33;10.40;;;3.73;;
8704;SDS011;4389;41.932;25.904;2023-10-13T09:53:04;5.87;;;3.50;;
8704;SDS011;4389;41.932;25.904;2023-10-13T09:55:35;8.23;;;3.40;;
8704;SDS011;4389;41.932;25.904;2023-10-13T09:58:05;8.13;;;3.23;;
8704;SDS011;4389;41.932;25.904;2023-10-13T10:00:42;9.17;;;3.97;;
8704;SDS011;4389;41.932;25.904;2023-10-13T10:03:12;8.70;;;3.57;;
8704;SDS011;4389;41.932;25.904;2023-10-13T10:05:55;15.20;;;3.20;;
8704;SDS011;4389;41.932;25.904;2023-10-13T10:08:30;12.57;;;3.80;;
8704;SDS011;4389;41.932;25.904;2023-10-13T10:11:03;11.40;;;3.77;;
8704;SDS011;4389;41.932;25.904;2023-10-13T10:13:35;28.23;;;5.10;;
8704;SDS011;4389;41.932;25.904;2023-10-13T10:16:08;6.90;;;3.30;;
8704;SDS011;4389;41.932;25.904;2023-10-13T10:18:40;9.77;;;4.23;;
8704;SDS011;4389;41.932;25.904;2023-10-13T10:21:06;11.97;;;4.00;;
8704;SDS011;4389;41.932;25.904;2023-10-13T10:23:36;6.77;;;3.60;;
8704;SDS011;4389;41.932;25.904;2023-10-13T10:26:11;5.87;;;3.40;;
8704;SDS011;4389;41.932;25.904;2023-10-13T10:28:41;12.43;;;3.57;;
8704;SDS011;4389;41.932;25.904;2023-10-13T10:31:08;8.13;;;3.70;;
8704;SDS011;4389;41.932;25.904;2023-10-13T10:33:38;15.83;;;4.67;;
8704;SDS011;4389;41.932;25.904;2023-10-13T10:36:05;10.53;;;3.83;;
8704;SDS011;4389;41.932;25.904;2023-10-13T10:38:34;11.13;;;4.00;;
8704;SDS011;4389;41.932;25.904;2023-10-13T10:41:05;7.67;;;3.60;;
8704;SDS011;4389;41.932;25.904;2023-10-13T10:43:36;15.67;;;4.13;;
8704;SDS011;4389;41.932;25.904;2023-10-13T10:46:12;16.33;;;3.80;;
8704;SDS011;4389;41.932;25.904;2023-10-13T10:48:41;13.00;;;3.90;;
8704;SDS011;4389;41.932;25.904;2023-10-13T10:51:09;8.67;;;3.83;;
8704;SDS011;4389;41.932;25.904;2023-10-13T10:53:46;10.83;;;3.63;;
8704;SDS011;4389;41.932;25.904;2023-10-13T10:56:17;15.40;;;4.57;;
8704;SDS011;4389;41.932;25.904;2023-10-13T10:58:50;10.43;;;4.20;;
8704;SDS011;4389;41.932;25.904;2023-10-13T11:01:20;5.47;;;4.30;;
8704;SDS011;4389;41.932;25.904;2023-10-13T11:03:53;17.53;;;3.63;;
8704;SDS011;4389;41.932;25.904;2023-10-13T11:06:23;4.10;;;3.43;;
8704;SDS011;4389;41.932;25.904;2023-10-13T11:09:01;7.97;;;3.87;;
8704;SDS011;4389;41.932;25.904;2023-10-13T11:11:30;17.60;;;4.17;;
8704;SDS011;4389;41.932;25.904;2023-10-13T11:14:00;6.00;;;3.90;;
8704;SDS011;4389;41.932;25.904;2023-10-13T11:16:46;10.00;;;3.87;;
8704;SDS011;4389;41.932;25.904;2023-10-13T11:19:16;16.77;;;4.13;;
8704;SDS011;4389;41.932;25.904;2023-10-13T11:21:46;11.63;;;3.80;;
8704;SDS011;4389;41.932;25.904;2023-10-13T11:24:13;8.17;;;4.30;;
8704;SDS011;4389;41.932;25.904;2023-10-13T11:26:44;7.10;;;3.30;;
8704;SDS011;4389;41.932;25.904;2023-10-13T11:29:15;12.23;;;3.83;;
8704;SDS011;4389;41.932;25.904;2023-10-13T11:31:45;20.17;;;7.37;;
8704;SDS011;4389;41.932;25.904;2023-10-13T11:34:19;14.43;;;3.70;;
8704;SDS011;4389;41.932;25.904;2023-10-13T11:36:46;6.53;;;3.77;;
8704;SDS011;4389;41.932;25.904;2023-10-13T11:39:12;6.18;;;3.25;;
8704;SDS011;4389;41.932;25.904;2023-10-13T11:41:52;7.07;;;3.43;;
8704;SDS011;4389;41.932;25.904;2023-10-13T11:44:20;7.40;;;3.93;;
8704;SDS011;4389;41.932;25.904;2023-10-13T11:46:56;4.90;;;3.20;;
8704;SDS011;4389;41.932;25.904;2023-10-13T11:49:33;12.57;;;4.90;;
8704;SDS011;4389;41.932;25.904;2023-10-13T11:52:02;13.30;;;3.90;;
8704;SDS011;4389;41.932;25.904;2023-10-13T11:54:43;10.07;;;4.20;;
8704;SDS011;4389;41.932;25.904;2023-10-13T11:57:13;7.65;;;3.40;;
8704;SDS011;4389;41.932;25.904;2023-10-13T11:59:43;9.45;;;5.93;;
8704;SDS011;4389;41.932;25.904;2023-10-13T12:02:21;7.90;;;3.63;;
8704;SDS011;4389;41.932;25.904;2023-10-13T12:05:06;7.18;;;3.10;;
8704;SDS011;4389;41.932;25.904;2023-10-13T12:07:42;7.40;;;3.03;;
8704;SDS011;4389;41.932;25.904;2023-10-13T12:10:10;9.73;;;2.78;;
8704;SDS011;4389;41.932;25.904;2023-10-13T12:12:43;4.55;;;3.40;;
8704;SDS011;4389;41.932;25.904;2023-10-13T12:15:11;5.85;;;3.20;;
8704;SDS011;4389;41.932;25.904;2023-10-13T12:17:50;7.55;;;2.95;;
8704;SDS011;4389;41.932;25.904;2023-10-13T12:20:18;5.43;;;3.30;;
8704;SDS011;4389;41.932;25.904;2023-10-13T12:22:58;4.45;;;2.90;;
8704;SDS011;4389;41.932;25.904;2023-10-13T12:25:35;4.30;;;3.38;;
8704;SDS011;4389;41.932;25.904;2023-10-13T12:28:22;14.80;;;8.63;;
8704;SDS011;4389;41.932;25.904;2023-10-13T12:30:51;14.15;;;9.65;;
8704;SDS011;4389;41.932;25.904;2023-10-13T12:33:22;11.27;;;3.38;;
8704;SDS011;4389;41.932;25.904;2023-10-13T12:35:57;7.25;;;3.03;;
8704;SDS011;4389;41.932;25.904;2023-10-13T12:38:34;7.35;;;3.00;;
8704;SDS011;4389;41.932;25.904;2023-10-13T12:41:18;4.38;;;3.40;;
8704;SDS011;4389;41.932;25.904;2023-10-13T12:44:05;6.13;;;2.70;;
8704;SDS011;4389;41.932;25.904;2023-10-13T12:46:50;10.65;;;3.72;;
8704;SDS011;4389;41.932;25.904;2023-10-13T12:49:35;4.40;;;3.13;;
8704;SDS011;4389;41.932;25.904;2023-10-13T12:52:17;8.02;;;2.78;;
8704;SDS011;4389;41.932;25.904;2023-10-13T12:54:45;4.90;;;2.88;;
8704;SDS011;4389;41.932;25.904;2023-10-13T12:57:19;5.15;;;3.65;;
8704;SDS011;4389;41.932;25.904;2023-10-13T12:59:49;6.75;;;3.60;;
8704;SDS011;4389;41.932;25.904;2023-10-13T13:02:18;8.93;;;3.50;;
8704;SDS011;4389;41.932;25.904;2023-10-13T13:04:45;14.30;;;3.20;;
8704;SDS011;4389;41.932;25.904;2023-10-13T13:07:16;5.20;;;3.40;;
8704;SDS011;4389;41.932;25.904;2023-10-13T13:09:43;8.75;;;2.88;;
8704;SDS011;4389;41.932;25.904;2023-10-13T13:12:10;15.70;;;3.28;;
8704;SDS011;4389;41.932;25.904;2023-10-13T13:14:37;22.45;;;4.60;;
8704;SDS011;4389;41.932;25.904;2023-10-13T13:17:08;7.22;;;2.90;;
8704;SDS011;4389;41.932;25.904;2023-10-13T13:19:35;15.60;;;3.92;;
8704;SDS011;4389;41.932;25.904;2023-10-13T13:22:04;17.92;;;3.92;;
8704;SDS011;4389;41.932;25.904;2023-10-13T13:24:37;5.60;;;2.92;;
8704;SDS011;4389;41.932;25.904;2023-10-13T13:27:09;9.50;;;3.47;;
8704;SDS011;4389;41.932;25.904;2023-10-13T13:29:39;13.02;;;5.13;;
8704;SDS011;4389;41.932;25.904;2023-10-13T13:32:07;13.50;;;4.63;;
8704;SDS011;4389;41.932;25.904;2023-10-13T13:34:42;8.80;;;3.15;;
8704;SDS011;4389;41.932;25.904;2023-10-13T13:37:09;5.07;;;2.70;;
8704;SDS011;4389;41.932;25.904;2023-10-13T13:39:37;7.10;;;4.28;;
8704;SDS011;4389;41.932;25.904;2023-10-13T13:42:08;4.80;;;2.70;;
8704;SDS011;4389;41.932;25.904;2023-10-13T13:44:36;14.52;;;3.65;;
8704;SDS011;4389;41.932;25.904;2023-10-13T13:47:03;8.18;;;2.30;;
8704;SDS011;4389;41.932;25.904;2023-10-13T13:49:38;76.32;;;7.57;;
8704;SDS011;4389;41.932;25.904;2023-10-13T13:52:06;8.55;;;3.47;;
8704;SDS011;4389;41.932;25.904;2023-10-13T13:54:33;5.03;;;2.70;;
8704;SDS011;4389;41.932;25.904;2023-10-13T13:57:00;8.98;;;3.42;;
8704;SDS011;4389;41.932;25.904;2023-10-13T13:59:26;7.38;;;2.92;;
8704;SDS011;4389;41.932;25.904;2023-10-13T14:01:59;6.90;;;3.33;;
8704;SDS011;4389;41.932;25.904;2023-10-13T14:04:32;6.00;;;2.88;;
8704;SDS011;4389;41.932;25.904;2023-10-13T14:07:00;6.63;;;3.22;;
8704;SDS011;4389;41.932;25.904;2023-10-13T14:09:31;15.02;;;4.47;;
8704;SDS011;4389;41.932;25.904;2023-10-13T14:12:05;71.18;;;7.70;;
8704;SDS011;4389;41.932;25.904;2023-10-13T14:14:49;9.25;;;2.53;;
8704;SDS011;4389;41.932;25.904;2023-10-13T14:17:21;8.13;;;3.20;;
8704;SDS011;4389;41.932;25.904;2023-10-13T14:19:54;9.98;;;3.30;;
8704;SDS011;4389;41.932;25.904;2023-10-13T14:22:23;5.13;;;2.97;;
8704;SDS011;4389;41.932;25.904;2023-10-13T14:24:51;20.08;;;8.25;;
8704;SDS011;4389;41.932;25.904;2023-10-13T14:27:20;9.43;;;3.67;;
8704;SDS011;4389;41.932;25.904;2023-10-13T14:29:48;28.00;;;6.07;;
8704;SDS011;4389;41.932;25.904;2023-10-13T14:32:18;8.95;;;4.38;;
8704;SDS011;4389;41.932;25.904;2023-10-13T14:34:49;10.48;;;4.95;;
8704;SDS011;4389;41.932;25.904;2023-10-13T14:37:23;8.02;;;3.42;;
8704;SDS011;4389;41.932;25.904;2023-10-13T14:39:55;14.93;;;5.32;;
8704;SDS011;4389;41.932;25.904;2023-10-13T14:42:23;12.60;;;5.65;;
8704;SDS011;4389;41.932;25.904;2023-10-13T14:44:50;9.50;;;6.97;;
8704;SDS011;4389;41.932;25.904;2023-10-13T14:47:22;24.85;;;6.07;;
8704;SDS011;4389;41.932;25.904;2023-10-13T14:49:51;16.25;;;6.70;;
8704;SDS011;4389;41.932;25.904;2023-10-13T14:52:20;22.23;;;6.40;;
8704;SDS011;4389;41.932;25.904;2023-10-13T14:54:48;11.85;;;5.65;;
8704;SDS011;4389;41.932;25.904;2023-10-13T14:57:20;30.38;;;6.05;;
8704;SDS011;4389;41.932;25.904;2023-10-13T14:59:50;27.20;;;6.70;;
8704;SDS011;4389;41.932;25.904;2023-10-13T15:02:17;18.20;;;6.28;;
8704;SDS011;4389;41.932;25.904;2023-10-13T15:04:45;20.87;;;6.60;;
8704;SDS011;4389;41.932;25.904;2023-10-13T15:07:13;34.33;;;8.98;;
8704;SDS011;4389;41.932;25.904;2023-10-13T15:09:40;15.43;;;5.47;;
8704;SDS011;4389;41.932;25.904;2023-10-13T15:12:09;20.37;;;5.90;;
8704;SDS011;4389;41.932;25.904;2023-10-13T15:14:36;21.27;;;8.83;;
8704;SDS011;4389;41.932;25.904;2023-10-13T15:17:04;13.73;;;4.83;;
8704;SDS011;4389;41.932;25.904;2023-10-13T15:19:32;13.27;;;4.07;;
8704;SDS011;4389;41.932;25.904;2023-10-13T15:22:01;12.60;;;3.90;;
8704;SDS011;4389;41.932;25.904;2023-10-13T15:24:31;16.13;;;5.50;;
8704;SDS011;4389;41.932;25.904;2023-10-13T15:27:01;21.10;;;6.47;;
8704;SDS011;4389;41.932;25.904;2023-10-13T15:29:35;26.20;;;6.43;;